sensor_id;sensor_type;location;lat;lon;timestamp;pressure;altitude;pressure_sealevel;temperature;humidity
75562;BME280;64143;53.034;18.582;2022-11-03T00:01:27;102261.05;;;10.84;67.06
75562;BME280;64143;53.034;18.582;2022-11-03T00:04:28;102262.16;;;10.81;67.21
75562;BME280;64143;53.034;18.582;2022-11-03T00:07:30;102258.01;;;10.78;67.00
75562;BME280;64143;53.034;18.582;2022-11-03T00:10:31;102254.96;;;10.73;67.31
75562;BME280;64143;53.034;18.582;2022-11-03T00:13:41;102253.56;;;10.69;67.43
75562;BME280;64143;53.034;18.582;2022-11-03T00:16:43;102252.73;;;10.69;67.44
75562;BME280;64143;53.034;18.582;2022-11-03T00:19:45;102250.63;;;10.53;67.47
75562;BME280;64143;53.034;18.582;2022-11-03T00:22:46;102256.34;;;10.58;67.16
75562;BME280;64143;53.034;18.582;2022-11-03T00:25:47;102264.91;;;10.60;67.58
75562;BME280;64143;53.034;18.582;2022-11-03T00:29:04;102269.35;;;10.60;67.54
75562;BME280;64143;53.034;18.582;2022-11-03T00:32:06;102272.95;;;10.59;67.62
75562;BME280;64143;53.034;18.582;2022-11-03T00:35:08;102276.65;;;10.56;67.55
75562;BME280;64143;53.034;18.582;2022-11-03T00:38:09;102275.71;;;10.57;67.70
75562;BME280;64143;53.034;18.582;2022-11-03T00:41:11;102266.83;;;10.48;67.71
75562;BME280;64143;53.034;18.582;2022-11-03T00:44:20;102275.96;;;10.44;67.96
75562;BME280;64143;53.034;18.582;2022-11-03T00:47:21;102278.87;;;10.41;68.03
75562;BME280;64143;53.034;18.582;2022-11-03T00:50:23;102264.85;;;10.41;68.24
75562;BME280;64143;53.034;18.582;2022-11-03T00:53:24;102266.78;;;10.39;67.95
75562;BME280;64143;53.034;18.582;2022-11-03T00:56:33;102274.96;;;10.36;67.80
75562;BME280;64143;53.034;18.582;2022-11-03T00:59:42;102280.89;;;10.28;68.21
75562;BME280;64143;53.034;18.582;2022-11-03T01:02:43;102274.53;;;10.31;68.41
75562;BME280;64143;53.034;18.582;2022-11-03T01:05:44;102282.94;;;10.25;68.25
75562;BME280;64143;53.034;18.582;2022-11-03T01:09:07;102282.69;;;10.28;68.37
75562;BME280;64143;53.034;18.582;2022-11-03T01:12:14;102276.19;;;10.32;68.12
75562;BME280;64143;53.034;18.582;2022-11-03T01:15:16;102279.24;;;10.27;68.37
75562;BME280;64143;53.034;18.582;2022-11-03T01:18:18;102280.31;;;10.25;68.09
75562;BME280;64143;53.034;18.582;2022-11-03T01:21:19;102278.88;;;10.21;68.51
75562;BME280;64143;53.034;18.582;2022-11-03T01:24:28;102283.20;;;10.22;68.45
75562;BME280;64143;53.034;18.582;2022-11-03T01:27:30;102274.87;;;10.16;68.30
75562;BME280;64143;53.034;18.582;2022-11-03T01:30:34;102276.94;;;10.13;68.51
75562;BME280;64143;53.034;18.582;2022-11-03T01:33:36;102281.37;;;10.12;68.64
75562;BME280;64143;53.034;18.582;2022-11-03T01:36:38;102278.98;;;10.09;68.72
75562;BME280;64143;53.034;18.582;2022-11-03T01:39:49;102276.48;;;10.08;68.52
75562;BME280;64143;53.034;18.582;2022-11-03T01:42:50;102269.19;;;10.11;68.33
75562;BME280;64143;53.034;18.582;2022-11-03T01:46:02;102274.26;;;10.03;68.46
75562;BME280;64143;53.034;18.582;2022-11-03T01:52:25;102273.96;;;9.97;68.67
75562;BME280;64143;53.034;18.582;2022-11-03T01:55:31;102272.41;;;9.94;68.71
75562;BME280;64143;53.034;18.582;2022-11-03T01:58:39;102270.74;;;9.93;68.80
75562;BME280;64143;53.034;18.582;2022-11-03T02:01:44;102269.92;;;9.93;68.73
75562;BME280;64143;53.034;18.582;2022-11-03T02:04:48;102269.88;;;9.83;68.95
75562;BME280;64143;53.034;18.582;2022-11-03T02:07:57;102265.50;;;9.93;68.31
75562;BME280;64143;53.034;18.582;2022-11-03T02:11:02;102266.87;;;9.87;68.72
75562;BME280;64143;53.034;18.582;2022-11-03T02:14:15;102263.41;;;9.87;68.77
75562;BME280;64143;53.034;18.582;2022-11-03T02:17:19;102257.19;;;9.88;68.63
75562;BME280;64143;53.034;18.582;2022-11-03T02:20:24;102258.84;;;9.89;68.75
75562;BME280;64143;53.034;18.582;2022-11-03T02:23:38;102258.98;;;9.87;68.99
75562;BME280;64143;53.034;18.582;2022-11-03T02:26:46;102257.45;;;9.85;68.63
75562;BME280;64143;53.034;18.582;2022-11-03T02:29:48;102264.05;;;9.79;68.63
75562;BME280;64143;53.034;18.582;2022-11-03T02:32:57;102260.48;;;9.80;68.84
75562;BME280;64143;53.034;18.582;2022-11-03T02:36:11;102258.92;;;9.78;68.92
75562;BME280;64143;53.034;18.582;2022-11-03T02:39:29;102272.59;;;9.72;69.02
75562;BME280;64143;53.034;18.582;2022-11-03T02:42:32;102273.98;;;9.76;68.89
75562;BME280;64143;53.034;18.582;2022-11-03T02:45:36;102280.87;;;9.67;68.89
75562;BME280;64143;53.034;18.582;2022-11-03T02:48:40;102285.16;;;9.68;68.94
75562;BME280;64143;53.034;18.582;2022-11-03T02:51:42;102272.99;;;9.67;68.92
75562;BME280;64143;53.034;18.582;2022-11-03T02:54:45;102272.84;;;9.69;69.04
75562;BME280;64143;53.034;18.582;2022-11-03T02:57:52;102271.89;;;9.70;68.79
75562;BME280;64143;53.034;18.582;2022-11-03T03:01:07;102272.16;;;9.67;68.71
75562;BME280;64143;53.034;18.582;2022-11-03T03:07:37;102277.48;;;9.55;69.37
75562;BME280;64143;53.034;18.582;2022-11-03T03:10:43;102279.96;;;9.57;69.37
75562;BME280;64143;53.034;18.582;2022-11-03T03:13:46;102279.13;;;9.56;69.17
75562;BME280;64143;53.034;18.582;2022-11-03T03:16:59;102278.30;;;9.56;69.06
75562;BME280;64143;53.034;18.582;2022-11-03T03:23:20;102277.97;;;9.49;69.43
75562;BME280;64143;53.034;18.582;2022-11-03T03:26:27;102275.12;;;9.52;69.44
75562;BME280;64143;53.034;18.582;2022-11-03T03:29:39;102272.98;;;9.46;69.68
75562;BME280;64143;53.034;18.582;2022-11-03T03:32:47;102272.98;;;9.46;69.48
75562;BME280;64143;53.034;18.582;2022-11-03T03:35:50;102259.15;;;9.44;69.35
75562;BME280;64143;53.034;18.582;2022-11-03T03:38:57;102255.56;;;9.45;69.25
75562;BME280;64143;53.034;18.582;2022-11-03T03:42:02;102276.83;;;9.42;69.45
75562;BME280;64143;53.034;18.582;2022-11-03T03:45:07;102268.82;;;9.44;69.53
75562;BME280;64143;53.034;18.582;2022-11-03T03:48:11;102273.51;;;9.40;69.40
75562;BME280;64143;53.034;18.582;2022-11-03T03:51:15;102272.11;;;9.36;69.49
75562;BME280;64143;53.034;18.582;2022-11-03T03:54:17;102282.60;;;9.36;69.52
75562;BME280;64143;53.034;18.582;2022-11-03T03:57:23;102286.42;;;9.32;69.63
75562;BME280;64143;53.034;18.582;2022-11-03T04:00:25;102283.66;;;9.34;69.71
75562;BME280;64143;53.034;18.582;2022-11-03T04:03:27;102287.65;;;9.28;69.86
75562;BME280;64143;53.034;18.582;2022-11-03T04:06:30;102283.04;;;9.20;69.78
75562;BME280;64143;53.034;18.582;2022-11-03T04:09:31;102291.92;;;9.29;69.61
75562;BME280;64143;53.034;18.582;2022-11-03T04:12:43;102293.84;;;9.27;69.69
75562;BME280;64143;53.034;18.582;2022-11-03T04:15:58;102290.61;;;9.35;69.70
75562;BME280;64143;53.034;18.582;2022-11-03T04:19:11;102292.45;;;9.23;69.76
75562;BME280;64143;53.034;18.582;2022-11-03T04:22:29;102289.13;;;9.21;69.72
75562;BME280;64143;53.034;18.582;2022-11-03T04:25:31;102290.30;;;9.17;69.70
75562;BME280;64143;53.034;18.582;2022-11-03T04:28:32;102294.94;;;9.24;69.64
75562;BME280;64143;53.034;18.582;2022-11-03T04:31:43;102302.02;;;9.13;69.88
75562;BME280;64143;53.034;18.582;2022-11-03T04:34:45;102298.17;;;9.17;69.55
75562;BME280;64143;53.034;18.582;2022-11-03T04:37:59;102298.95;;;9.08;69.79
75562;BME280;64143;53.034;18.582;2022-11-03T04:41:19;102296.68;;;9.03;69.73
75562;BME280;64143;53.034;18.582;2022-11-03T04:44:21;102298.02;;;8.97;69.46
75562;BME280;64143;53.034;18.582;2022-11-03T04:47:24;102300.40;;;9.01;69.63
75562;BME280;64143;53.034;18.582;2022-11-03T04:50:36;102282.55;;;8.94;69.85
75562;BME280;64143;53.034;18.582;2022-11-03T04:53:46;102288.52;;;8.85;70.43
75562;BME280;64143;53.034;18.582;2022-11-03T04:56:48;102283.27;;;8.85;70.09
75562;BME280;64143;53.034;18.582;2022-11-03T04:59:50;102286.12;;;8.93;69.51
75562;BME280;64143;53.034;18.582;2022-11-03T05:02:51;102287.11;;;8.81;69.96
75562;BME280;64143;53.034;18.582;2022-11-03T05:05:58;102284.74;;;8.78;69.67
75562;BME280;64143;53.034;18.582;2022-11-03T05:12:17;102286.91;;;8.73;69.88
75562;BME280;64143;53.034;18.582;2022-11-03T05:15:36;102290.46;;;8.72;69.88
75562;BME280;64143;53.034;18.582;2022-11-03T05:18:40;102289.63;;;8.72;69.56
75562;BME280;64143;53.034;18.582;2022-11-03T05:21:43;102286.68;;;8.65;69.67
75562;BME280;64143;53.034;18.582;2022-11-03T05:24:55;102291.48;;;8.60;69.73
75562;BME280;64143;53.034;18.582;2022-11-03T05:27:57;102294.09;;;8.60;69.32
75562;BME280;64143;53.034;18.582;2022-11-03T05:30:58;102287.51;;;8.65;69.27
75562;BME280;64143;53.034;18.582;2022-11-03T05:34:02;102290.27;;;8.53;69.87
75562;BME280;64143;53.034;18.582;2022-11-03T05:40:25;102306.71;;;8.55;69.70
75562;BME280;64143;53.034;18.582;2022-11-03T05:43:27;102307.41;;;8.57;70.04
75562;BME280;64143;53.034;18.582;2022-11-03T05:46:31;102311.37;;;8.51;70.37
75562;BME280;64143;53.034;18.582;2022-11-03T05:49:38;102313.85;;;8.53;70.55
75562;BME280;64143;53.034;18.582;2022-11-03T05:52:40;102305.29;;;8.51;70.33
75562;BME280;64143;53.034;18.582;2022-11-03T05:55:42;102314.69;;;8.53;70.57
75562;BME280;64143;53.034;18.582;2022-11-03T05:58:45;102322.93;;;8.49;70.86
75562;BME280;64143;53.034;18.582;2022-11-03T06:01:49;102308.16;;;8.48;70.86
75562;BME280;64143;53.034;18.582;2022-11-03T06:04:59;102314.36;;;8.47;70.90
75562;BME280;64143;53.034;18.582;2022-11-03T06:08:02;102313.40;;;8.59;70.06
75562;BME280;64143;53.034;18.582;2022-11-03T06:11:35;102309.20;;;8.56;70.08
75562;BME280;64143;53.034;18.582;2022-11-03T06:14:28;102317.68;;;8.60;70.14
75562;BME280;64143;53.034;18.582;2022-11-03T06:17:30;102310.03;;;8.57;70.52
75562;BME280;64143;53.034;18.582;2022-11-03T06:20:33;102316.36;;;8.54;70.22
75562;BME280;64143;53.034;18.582;2022-11-03T06:23:35;102310.77;;;8.59;70.72
75562;BME280;64143;53.034;18.582;2022-11-03T06:26:38;102316.67;;;8.72;69.84
75562;BME280;64143;53.034;18.582;2022-11-03T06:29:49;102318.86;;;8.33;71.85
75562;BME280;64143;53.034;18.582;2022-11-03T06:32:54;102312.79;;;8.55;71.17
75562;BME280;64143;53.034;18.582;2022-11-03T06:36:11;102313.40;;;8.59;71.32
75562;BME280;64143;53.034;18.582;2022-11-03T06:39:21;102329.59;;;8.64;70.78
75562;BME280;64143;53.034;18.582;2022-11-03T06:42:30;102315.25;;;8.79;70.38
75562;BME280;64143;53.034;18.582;2022-11-03T06:45:33;102319.41;;;8.82;70.40
75562;BME280;64143;53.034;18.582;2022-11-03T06:48:39;102317.99;;;8.78;71.13
75562;BME280;64143;53.034;18.582;2022-11-03T06:51:41;102316.66;;;8.83;70.81
75562;BME280;64143;53.034;18.582;2022-11-03T06:54:42;102313.91;;;8.85;70.66
75562;BME280;64143;53.034;18.582;2022-11-03T06:57:48;102323.56;;;8.84;71.33
75562;BME280;64143;53.034;18.582;2022-11-03T07:00:52;102324.77;;;8.91;71.05
75562;BME280;64143;53.034;18.582;2022-11-03T07:04:12;102331.42;;;8.95;70.73
75562;BME280;64143;53.034;18.582;2022-11-03T07:07:24;102333.91;;;8.97;70.85
75562;BME280;64143;53.034;18.582;2022-11-03T07:10:25;102333.78;;;8.98;71.21
75562;BME280;64143;53.034;18.582;2022-11-03T07:13:30;102329.95;;;9.03;70.63
75562;BME280;64143;53.034;18.582;2022-11-03T07:16:40;102332.16;;;9.18;70.30
75562;BME280;64143;53.034;18.582;2022-11-03T07:19:44;102329.66;;;9.17;70.15
75562;BME280;64143;53.034;18.582;2022-11-03T07:22:55;102328.00;;;9.16;70.06
75562;BME280;64143;53.034;18.582;2022-11-03T07:26:01;102322.75;;;9.16;70.07
75562;BME280;64143;53.034;18.582;2022-11-03T07:29:03;102328.92;;;9.26;69.95
75562;BME280;64143;53.034;18.582;2022-11-03T07:32:19;102318.17;;;9.29;69.93
75562;BME280;64143;53.034;18.582;2022-11-03T07:38:28;102311.26;;;9.28;69.52
75562;BME280;64143;53.034;18.582;2022-11-03T07:41:31;102315.24;;;9.43;69.46
75562;BME280;64143;53.034;18.582;2022-11-03T07:44:34;102314.28;;;9.44;69.62
75562;BME280;64143;53.034;18.582;2022-11-03T07:47:35;102322.67;;;9.38;69.53
75562;BME280;64143;53.034;18.582;2022-11-03T07:50:37;102315.45;;;9.51;69.31
75562;BME280;64143;53.034;18.582;2022-11-03T07:53:47;102316.02;;;9.55;69.44
75562;BME280;64143;53.034;18.582;2022-11-03T07:56:59;102314.85;;;9.48;69.03
75562;BME280;64143;53.034;18.582;2022-11-03T08:00:05;102312.30;;;9.57;69.36
75562;BME280;64143;53.034;18.582;2022-11-03T08:03:19;102309.09;;;9.75;69.06
75562;BME280;64143;53.034;18.582;2022-11-03T08:06:21;102294.59;;;10.01;68.58
75562;BME280;64143;53.034;18.582;2022-11-03T08:09:23;102291.20;;;10.20;68.03
75562;BME280;64143;53.034;18.582;2022-11-03T08:12:35;102295.06;;;10.46;67.35
75562;BME280;64143;53.034;18.582;2022-11-03T08:15:37;102291.38;;;10.78;66.88
75562;BME280;64143;53.034;18.582;2022-11-03T08:18:38;102294.57;;;11.01;65.46
75562;BME280;64143;53.034;18.582;2022-11-03T08:21:40;102292.91;;;11.38;64.82
75562;BME280;64143;53.034;18.582;2022-11-03T08:24:41;102290.39;;;11.56;64.10
75562;BME280;64143;53.034;18.582;2022-11-03T08:27:42;102280.92;;;11.83;63.64
75562;BME280;64143;53.034;18.582;2022-11-03T08:30:44;102282.19;;;12.16;63.38
75562;BME280;64143;53.034;18.582;2022-11-03T08:33:50;102287.16;;;12.46;62.46
75562;BME280;64143;53.034;18.582;2022-11-03T08:36:51;102264.05;;;12.76;61.62
75562;BME280;64143;53.034;18.582;2022-11-03T08:39:53;102264.88;;;12.94;60.28
75562;BME280;64143;53.034;18.582;2022-11-03T08:42:54;102267.45;;;13.22;60.69
75562;BME280;64143;53.034;18.582;2022-11-03T08:45:55;102260.00;;;13.43;58.89
75562;BME280;64143;53.034;18.582;2022-11-03T08:48:57;102255.49;;;13.61;58.26
75562;BME280;64143;53.034;18.582;2022-11-03T08:51:59;102260.05;;;13.77;57.93
75562;BME280;64143;53.034;18.582;2022-11-03T08:55:05;102260.28;;;13.92;58.65
75562;BME280;64143;53.034;18.582;2022-11-03T08:58:07;102252.68;;;13.89;57.24
75562;BME280;64143;53.034;18.582;2022-11-03T09:01:08;102255.16;;;13.90;57.17
75562;BME280;64143;53.034;18.582;2022-11-03T09:04:10;102250.43;;;14.02;57.12
75562;BME280;64143;53.034;18.582;2022-11-03T09:07:11;102246.52;;;14.14;56.07
75562;BME280;64143;53.034;18.582;2022-11-03T09:10:12;102253.03;;;14.36;57.22
75562;BME280;64143;53.034;18.582;2022-11-03T09:13:14;102241.98;;;14.41;55.33
75562;BME280;64143;53.034;18.582;2022-11-03T09:16:20;102253.09;;;14.44;56.29
75562;BME280;64143;53.034;18.582;2022-11-03T09:19:21;102243.37;;;14.61;55.92
75562;BME280;64143;53.034;18.582;2022-11-03T09:22:23;102238.58;;;14.81;55.76
75562;BME280;64143;53.034;18.582;2022-11-03T09:25:24;102233.77;;;15.01;53.89
75562;BME280;64143;53.034;18.582;2022-11-03T09:28:25;102240.25;;;15.22;54.09
75562;BME280;64143;53.034;18.582;2022-11-03T09:31:27;102241.55;;;15.35;53.94
75562;BME280;64143;53.034;18.582;2022-11-03T09:34:29;102240.05;;;15.40;54.95
75562;BME280;64143;53.034;18.582;2022-11-03T09:37:35;102250.52;;;15.34;53.46
75562;BME280;64143;53.034;18.582;2022-11-03T09:40:36;102242.04;;;15.38;52.47
75562;BME280;64143;53.034;18.582;2022-11-03T09:43:38;102237.40;;;15.40;53.02
75562;BME280;64143;53.034;18.582;2022-11-03T09:46:39;102246.34;;;15.47;52.86
75562;BME280;64143;53.034;18.582;2022-11-03T09:49:41;102249.16;;;15.62;53.52
75562;BME280;64143;53.034;18.582;2022-11-03T09:52:42;102253.27;;;15.73;52.64
75562;BME280;64143;53.034;18.582;2022-11-03T09:55:44;102242.00;;;15.71;52.55
75562;BME280;64143;53.034;18.582;2022-11-03T09:58:49;102248.42;;;15.84;52.92
75562;BME280;64143;53.034;18.582;2022-11-03T10:01:52;102240.00;;;15.73;50.92
75562;BME280;64143;53.034;18.582;2022-11-03T10:04:56;102232.63;;;15.19;52.67
75562;BME280;64143;53.034;18.582;2022-11-03T10:08:00;102241.38;;;15.28;51.61
75562;BME280;64143;53.034;18.582;2022-11-03T10:11:05;102234.45;;;15.11;51.79
75562;BME280;64143;53.034;18.582;2022-11-03T10:14:13;102236.30;;;15.02;53.29
75562;BME280;64143;53.034;18.582;2022-11-03T10:17:19;102239.43;;;15.06;53.58
75562;BME280;64143;53.034;18.582;2022-11-03T10:20:22;102229.17;;;15.03;52.95
75562;BME280;64143;53.034;18.582;2022-11-03T10:23:24;102230.47;;;14.82;53.54
75562;BME280;64143;53.034;18.582;2022-11-03T10:26:26;102228.31;;;14.61;54.49
75562;BME280;64143;53.034;18.582;2022-11-03T10:29:34;102210.26;;;14.49;54.66
75562;BME280;64143;53.034;18.582;2022-11-03T10:32:35;102208.21;;;14.34;54.30
75562;BME280;64143;53.034;18.582;2022-11-03T10:35:38;102206.71;;;14.32;54.79
75562;BME280;64143;53.034;18.582;2022-11-03T10:38:42;102199.90;;;14.21;54.82
75562;BME280;64143;53.034;18.582;2022-11-03T10:41:58;102195.10;;;14.17;54.88
75562;BME280;64143;53.034;18.582;2022-11-03T10:48:11;102205.13;;;13.97;54.97
75562;BME280;64143;53.034;18.582;2022-11-03T10:51:13;102192.23;;;13.94;55.29
75562;BME280;64143;53.034;18.582;2022-11-03T10:54:21;102201.60;;;13.80;55.29
75562;BME280;64143;53.034;18.582;2022-11-03T10:57:24;102189.88;;;13.91;56.57
75562;BME280;64143;53.034;18.582;2022-11-03T11:00:27;102190.79;;;13.65;56.64
75562;BME280;64143;53.034;18.582;2022-11-03T11:03:29;102185.13;;;13.60;55.66
75562;BME280;64143;53.034;18.582;2022-11-03T11:06:30;102187.50;;;13.71;56.21
75562;BME280;64143;53.034;18.582;2022-11-03T11:09:39;102179.09;;;13.76;55.38
75562;BME280;64143;53.034;18.582;2022-11-03T11:15:55;102163.82;;;13.96;56.45
75562;BME280;64143;53.034;18.582;2022-11-03T11:19:06;102159.80;;;13.84;54.08
75562;BME280;64143;53.034;18.582;2022-11-03T11:22:12;102159.30;;;13.80;55.47
75562;BME280;64143;53.034;18.582;2022-11-03T11:25:14;102149.55;;;13.81;55.35
75562;BME280;64143;53.034;18.582;2022-11-03T11:28:18;102147.07;;;13.79;54.58
75562;BME280;64143;53.034;18.582;2022-11-03T11:31:26;102131.71;;;13.83;55.93
75562;BME280;64143;53.034;18.582;2022-11-03T11:34:38;102132.18;;;13.78;54.81
75562;BME280;64143;53.034;18.582;2022-11-03T11:37:40;102126.74;;;13.80;56.64
75562;BME280;64143;53.034;18.582;2022-11-03T11:40:49;102125.09;;;13.79;55.62
75562;BME280;64143;53.034;18.582;2022-11-03T11:43:53;102119.11;;;13.68;54.56
75562;BME280;64143;53.034;18.582;2022-11-03T11:46:54;102123.06;;;13.64;55.34
75562;BME280;64143;53.034;18.582;2022-11-03T11:50:15;102128.97;;;13.58;55.65
75562;BME280;64143;53.034;18.582;2022-11-03T11:53:21;102119.73;;;13.62;54.64
75562;BME280;64143;53.034;18.582;2022-11-03T11:56:23;102111.13;;;13.60;55.03
75562;BME280;64143;53.034;18.582;2022-11-03T11:59:25;102113.48;;;13.63;55.45
75562;BME280;64143;53.034;18.582;2022-11-03T12:02:28;102109.16;;;13.62;55.77
75562;BME280;64143;53.034;18.582;2022-11-03T12:05:33;102098.91;;;13.59;55.81
75562;BME280;64143;53.034;18.582;2022-11-03T12:08:41;102102.97;;;13.45;55.81
75562;BME280;64143;53.034;18.582;2022-11-03T12:11:48;102092.26;;;13.47;56.40
75562;BME280;64143;53.034;18.582;2022-11-03T12:14:50;102090.14;;;13.51;55.88
75562;BME280;64143;53.034;18.582;2022-11-03T12:17:51;102084.87;;;13.59;56.16
75562;BME280;64143;53.034;18.582;2022-11-03T12:20:53;102081.06;;;13.53;56.00
75562;BME280;64143;53.034;18.582;2022-11-03T12:27:38;102085.95;;;13.40;55.40
75562;BME280;64143;53.034;18.582;2022-11-03T12:30:25;102065.81;;;13.39;56.36
75562;BME280;64143;53.034;18.582;2022-11-03T12:33:30;102073.41;;;13.42;56.43
75562;BME280;64143;53.034;18.582;2022-11-03T12:36:32;102052.27;;;13.34;57.26
75562;BME280;64143;53.034;18.582;2022-11-03T12:39:33;102038.74;;;13.45;57.04
75562;BME280;64143;53.034;18.582;2022-11-03T12:42:35;102047.66;;;13.44;56.21
75562;BME280;64143;53.034;18.582;2022-11-03T12:45:37;102043.85;;;13.38;55.59
75562;BME280;64143;53.034;18.582;2022-11-03T12:48:38;102044.84;;;13.37;54.84
75562;BME280;64143;53.034;18.582;2022-11-03T12:51:43;102047.98;;;13.41;55.66
75562;BME280;64143;53.034;18.582;2022-11-03T12:54:48;102042.70;;;13.41;56.29
75562;BME280;64143;53.034;18.582;2022-11-03T12:57:50;102043.15;;;13.28;56.05
75562;BME280;64143;53.034;18.582;2022-11-03T13:00:51;102040.33;;;13.22;54.67
75562;BME280;64143;53.034;18.582;2022-11-03T13:03:53;102030.45;;;13.32;56.10
75562;BME280;64143;53.034;18.582;2022-11-03T13:06:55;102027.51;;;13.35;55.75
75562;BME280;64143;53.034;18.582;2022-11-03T13:09:56;102023.55;;;13.39;55.52
75562;BME280;64143;53.034;18.582;2022-11-03T13:12:58;102031.32;;;13.40;55.98
75562;BME280;64143;53.034;18.582;2022-11-03T13:16:04;102031.48;;;13.39;55.51
75562;BME280;64143;53.034;18.582;2022-11-03T13:19:05;102019.41;;;13.36;54.79
75562;BME280;64143;53.034;18.582;2022-11-03T13:22:10;102013.30;;;13.36;54.93
75562;BME280;64143;53.034;18.582;2022-11-03T13:25:12;102007.37;;;13.34;54.56
75562;BME280;64143;53.034;18.582;2022-11-03T13:28:14;102008.98;;;13.27;55.39
75562;BME280;64143;53.034;18.582;2022-11-03T13:31:24;102003.70;;;13.27;57.09
75562;BME280;64143;53.034;18.582;2022-11-03T13:34:25;101992.30;;;13.26;56.53
75562;BME280;64143;53.034;18.582;2022-11-03T13:37:27;101986.86;;;13.28;55.97
75562;BME280;64143;53.034;18.582;2022-11-03T13:40:28;101990.66;;;13.25;55.85
75562;BME280;64143;53.034;18.582;2022-11-03T13:43:30;101978.27;;;13.26;56.58
75562;BME280;64143;53.034;18.582;2022-11-03T13:46:31;101972.99;;;13.26;56.54
75562;BME280;64143;53.034;18.582;2022-11-03T13:49:32;101969.02;;;13.22;56.95
75562;BME280;64143;53.034;18.582;2022-11-03T13:52:39;101965.72;;;13.20;56.65
75562;BME280;64143;53.034;18.582;2022-11-03T13:55:40;101958.72;;;13.10;56.41
75562;BME280;64143;53.034;18.582;2022-11-03T13:58:42;101952.77;;;13.08;57.10
75562;BME280;64143;53.034;18.582;2022-11-03T14:01:43;101945.19;;;13.13;57.68
75562;BME280;64143;53.034;18.582;2022-11-03T14:04:45;101942.88;;;13.10;57.83
75562;BME280;64143;53.034;18.582;2022-11-03T14:07:47;101937.92;;;13.07;57.98
75562;BME280;64143;53.034;18.582;2022-11-03T14:10:49;101937.26;;;13.05;57.60
75562;BME280;64143;53.034;18.582;2022-11-03T14:13:54;101939.89;;;13.05;58.22
75562;BME280;64143;53.034;18.582;2022-11-03T14:16:56;101932.47;;;13.09;58.12
75562;BME280;64143;53.034;18.582;2022-11-03T14:19:57;101933.63;;;13.06;57.34
75562;BME280;64143;53.034;18.582;2022-11-03T14:22:59;101923.39;;;13.03;57.03
75562;BME280;64143;53.034;18.582;2022-11-03T14:26:01;101915.77;;;13.00;57.07
75562;BME280;64143;53.034;18.582;2022-11-03T14:29:03;101907.55;;;13.03;58.51
75562;BME280;64143;53.034;18.582;2022-11-03T14:32:05;101902.56;;;13.00;58.06
75562;BME280;64143;53.034;18.582;2022-11-03T14:35:10;101895.63;;;12.99;59.08
75562;BME280;64143;53.034;18.582;2022-11-03T14:38:11;101884.58;;;12.96;58.70
75562;BME280;64143;53.034;18.582;2022-11-03T14:41:13;101882.76;;;12.88;58.68
75562;BME280;64143;53.034;18.582;2022-11-03T14:44:38;101879.13;;;12.89;59.08
75562;BME280;64143;53.034;18.582;2022-11-03T14:47:40;101872.83;;;12.82;59.43
75562;BME280;64143;53.034;18.582;2022-11-03T14:50:41;101873.48;;;12.76;59.16
75562;BME280;64143;53.034;18.582;2022-11-03T14:53:42;101876.61;;;12.79;59.60
75562;BME280;64143;53.034;18.582;2022-11-03T14:56:44;101864.57;;;12.77;58.94
75562;BME280;64143;53.034;18.582;2022-11-03T14:59:45;101868.53;;;12.73;60.29
75562;BME280;64143;53.034;18.582;2022-11-03T15:02:47;101867.17;;;12.69;60.05
75562;BME280;64143;53.034;18.582;2022-11-03T15:05:52;101860.56;;;12.65;60.46
75562;BME280;64143;53.034;18.582;2022-11-03T15:08:55;101852.80;;;12.63;60.26
75562;BME280;64143;53.034;18.582;2022-11-03T15:11:56;101856.10;;;12.57;60.45
75562;BME280;64143;53.034;18.582;2022-11-03T15:14:58;101846.00;;;12.52;62.14
75562;BME280;64143;53.034;18.582;2022-11-03T15:18:01;101849.95;;;12.48;61.77
75562;BME280;64143;53.034;18.582;2022-11-03T15:21:13;101860.00;;;12.45;61.72
75562;BME280;64143;53.034;18.582;2022-11-03T15:24:15;101846.98;;;12.43;61.45
75562;BME280;64143;53.034;18.582;2022-11-03T15:27:16;101858.67;;;12.41;61.59
75562;BME280;64143;53.034;18.582;2022-11-03T15:30:18;101857.97;;;12.39;61.98
75562;BME280;64143;53.034;18.582;2022-11-03T15:33:19;101858.45;;;12.34;61.47
75562;BME280;64143;53.034;18.582;2022-11-03T15:36:21;101853.45;;;12.23;62.57
75562;BME280;64143;53.034;18.582;2022-11-03T15:39:24;101848.84;;;12.25;63.05
75562;BME280;64143;53.034;18.582;2022-11-03T15:42:28;101848.34;;;12.21;62.74
75562;BME280;64143;53.034;18.582;2022-11-03T15:45:31;101842.24;;;12.21;62.68
75562;BME280;64143;53.034;18.582;2022-11-03T15:48:32;101839.41;;;12.14;62.92
75562;BME280;64143;53.034;18.582;2022-11-03T15:51:34;101837.93;;;12.12;62.96
75562;BME280;64143;53.034;18.582;2022-11-03T15:54:35;101838.91;;;12.11;63.05
75562;BME280;64143;53.034;18.582;2022-11-03T15:57:36;101835.57;;;12.09;63.21
75562;BME280;64143;53.034;18.582;2022-11-03T16:00:38;101833.58;;;12.03;63.79
75562;BME280;64143;53.034;18.582;2022-11-03T16:03:43;101836.02;;;11.96;63.93
75562;BME280;64143;53.034;18.582;2022-11-03T16:06:45;101834.88;;;11.99;64.08
75562;BME280;64143;53.034;18.582;2022-11-03T16:09:46;101830.38;;;11.91;64.45
75562;BME280;64143;53.034;18.582;2022-11-03T16:12:48;101833.48;;;11.86;64.34
75562;BME280;64143;53.034;18.582;2022-11-03T16:15:49;101829.34;;;11.84;64.25
75562;BME280;64143;53.034;18.582;2022-11-03T16:18:51;101830.48;;;11.81;64.47
75562;BME280;64143;53.034;18.582;2022-11-03T16:21:52;101826.10;;;11.72;64.74
75562;BME280;64143;53.034;18.582;2022-11-03T16:24:59;101831.38;;;11.72;64.80